createdAt,value
2022-10-08T00:00:02.019Z,7.50
2022-10-08T00:01:02.012Z,7.40
2022-10-08T00:02:02.079Z,7.30
2022-10-08T00:03:02.000Z,7.50
2022-10-08T00:04:02.025Z,6.40
2022-10-08T00:05:01.948Z,7.40
2022-10-08T00:06:01.985Z,7.30
2022-10-08T00:07:01.929Z,7.40
2022-10-08T00:08:01.914Z,7.70
2022-10-08T00:09:01.915Z,7.80
2022-10-08T00:10:01.897Z,7.70
2022-10-08T00:11:01.897Z,7.60
2022-10-08T00:12:01.885Z,7.70
2022-10-08T00:13:01.854Z,7.70
2022-10-08T00:14:01.853Z,7.70
2022-10-08T00:15:01.838Z,7.80
2022-10-08T00:16:01.858Z,8.00
2022-10-08T00:17:01.815Z,7.60
2022-10-08T00:18:01.819Z,7.40
2022-10-08T00:19:01.789Z,8.10
2022-10-08T00:20:01.794Z,6.80
2022-10-08T00:21:01.786Z,8.10
2022-10-08T00:22:01.774Z,7.90
2022-10-08T00:23:01.747Z,8.00
2022-10-08T00:24:01.732Z,8.50
2022-10-08T00:25:01.730Z,7.50
2022-10-08T00:26:01.732Z,8.10
2022-10-08T00:27:01.702Z,8.60
2022-10-08T00:28:01.779Z,8.30
2022-10-08T00:29:01.677Z,8.20
2022-10-08T00:30:01.668Z,7.90
2022-10-08T00:31:01.683Z,8.00
2022-10-08T00:32:01.776Z,8.10
2022-10-08T00:33:01.617Z,8.30
2022-10-08T00:34:01.656Z,7.70
2022-10-08T00:35:01.596Z,9.00
2022-10-08T00:36:01.598Z,8.50
2022-10-08T00:37:01.585Z,8.10
2022-10-08T00:38:01.569Z,7.90
2022-10-08T00:39:01.591Z,7.80
2022-10-08T00:40:01.570Z,8.00
2022-10-08T00:41:01.545Z,7.70
2022-10-08T00:42:01.528Z,7.60
2022-10-08T00:43:01.547Z,7.70
2022-10-08T00:44:01.537Z,7.40
2022-10-08T00:45:01.501Z,8.10
2022-10-08T00:46:01.594Z,8.00
2022-10-08T00:47:01.481Z,8.70
2022-10-08T00:48:01.471Z,7.50
2022-10-08T00:49:01.455Z,8.30
2022-10-08T00:50:01.467Z,7.00
2022-10-08T00:51:01.443Z,7.40
2022-10-08T00:52:01.415Z,7.70
2022-10-08T00:53:01.417Z,8.50
2022-10-08T00:54:01.398Z,7.90
2022-10-08T00:55:01.407Z,8.40
2022-10-08T00:56:01.369Z,7.80
2022-10-08T00:57:01.370Z,7.50
2022-10-08T00:58:01.347Z,7.20
2022-10-08T00:59:01.345Z,7.00
2022-10-08T01:00:01.354Z,7.50
2022-10-08T01:01:01.350Z,8.00
2022-10-08T01:02:01.321Z,8.20
2022-10-08T01:03:01.296Z,6.90
2022-10-08T01:04:01.276Z,7.80
2022-10-08T01:05:01.271Z,7.80
2022-10-08T01:06:01.282Z,7.90
2022-10-08T01:07:01.237Z,7.70
2022-10-08T01:08:01.242Z,7.90
2022-10-08T01:09:01.236Z,7.90
2022-10-08T01:10:01.213Z,8.40
2022-10-08T01:11:01.217Z,7.80
2022-10-08T01:12:01.193Z,7.50
2022-10-08T01:13:01.185Z,8.10
2022-10-08T01:14:01.174Z,7.70
2022-10-08T01:15:01.143Z,7.30
2022-10-08T01:16:01.216Z,7.60
2022-10-08T01:17:01.151Z,6.90
2022-10-08T01:18:01.121Z,7.90
2022-10-08T01:19:01.113Z,7.70
2022-10-08T01:20:01.107Z,8.00
2022-10-08T01:21:01.123Z,7.70
2022-10-08T01:22:01.081Z,7.30
2022-10-08T01:23:01.075Z,7.80
2022-10-08T01:24:01.056Z,7.50
2022-10-08T01:25:01.035Z,7.50
2022-10-08T01:26:01.034Z,7.50
2022-10-08T01:27:01.035Z,7.10
2022-10-08T01:28:01.100Z,7.80
2022-10-08T01:29:01.012Z,7.40
2022-10-08T01:30:00.986Z,7.30
2022-10-08T01:31:00.977Z,6.90
2022-10-08T01:32:01.004Z,6.90
2022-10-08T01:33:00.936Z,7.30
2022-10-08T01:34:00.936Z,7.40
2022-10-08T01:35:00.942Z,7.50
2022-10-08T01:36:00.922Z,7.10
2022-10-08T01:37:00.924Z,7.50
2022-10-08T01:38:00.908Z,7.10
2022-10-08T01:39:00.881Z,7.50
2022-10-08T01:40:00.874Z,7.00
2022-10-08T01:41:00.869Z,7.30
2022-10-08T01:42:00.850Z,8.30
2022-10-08T01:43:00.864Z,7.30
2022-10-08T01:44:00.843Z,7.40
2022-10-08T01:45:00.813Z,7.30
2022-10-08T01:46:00.904Z,7.50
2022-10-08T01:47:00.816Z,7.70
2022-10-08T01:48:00.793Z,7.20
2022-10-08T01:49:00.769Z,7.10
2022-10-08T01:50:00.777Z,7.50
2022-10-08T01:51:00.743Z,7.50
2022-10-08T01:52:00.728Z,7.30
2022-10-08T01:53:00.773Z,6.60
2022-10-08T01:54:00.699Z,7.30
2022-10-08T01:55:00.702Z,7.20
2022-10-08T01:56:00.711Z,7.40
2022-10-08T01:57:00.687Z,7.80
2022-10-08T01:58:00.662Z,7.60
2022-10-08T01:59:00.699Z,7.30
2022-10-08T02:00:00.638Z,7.30
2022-10-08T02:01:00.681Z,7.20
2022-10-08T02:02:00.663Z,7.40
2022-10-08T02:03:00.607Z,7.40
2022-10-08T02:04:00.629Z,8.00
2022-10-08T02:05:00.587Z,7.80
2022-10-08T02:06:00.575Z,7.50
2022-10-08T02:07:00.574Z,7.60
2022-10-08T02:08:00.548Z,7.40
2022-10-08T02:09:00.568Z,7.40
2022-10-08T02:10:00.532Z,7.80
2022-10-08T02:11:00.521Z,7.60
2022-10-08T02:12:00.516Z,6.90
2022-10-08T02:13:00.499Z,7.00
2022-10-08T02:14:00.478Z,8.00
2022-10-08T02:15:00.527Z,7.10
2022-10-08T02:16:00.457Z,7.70
2022-10-08T02:17:00.454Z,7.30
2022-10-08T02:18:00.440Z,6.80
2022-10-08T02:19:00.451Z,6.80
2022-10-08T02:20:00.437Z,6.30
2022-10-08T02:21:00.407Z,6.80
2022-10-08T02:22:00.395Z,6.80
2022-10-08T02:23:00.379Z,7.20
2022-10-08T02:24:00.363Z,6.40
2022-10-08T02:25:00.386Z,6.50
2022-10-08T02:26:00.376Z,6.70
2022-10-08T02:27:00.341Z,6.30
2022-10-08T02:28:00.376Z,6.40
2022-10-08T02:29:00.308Z,6.60
2022-10-08T02:30:00.311Z,6.00
2022-10-08T02:31:00.297Z,6.40
2022-10-08T02:32:00.396Z,5.80
2022-10-08T02:33:00.261Z,5.90
2022-10-08T02:34:00.268Z,5.80
2022-10-08T02:35:00.253Z,5.20
2022-10-08T02:36:00.289Z,5.90
2022-10-08T02:37:00.230Z,5.40
2022-10-08T02:38:00.203Z,5.90
2022-10-08T02:39:00.196Z,5.60
2022-10-08T02:40:00.201Z,5.70
2022-10-08T02:41:00.204Z,5.70
2022-10-08T02:42:00.168Z,5.80
2022-10-08T02:43:00.151Z,5.90
2022-10-08T02:44:00.147Z,5.60
2022-10-08T02:45:00.125Z,5.20
2022-10-08T02:46:00.240Z,5.60
2022-10-08T02:47:00.126Z,5.40
2022-10-08T02:48:00.095Z,5.60
2022-10-08T02:49:00.083Z,5.60
2022-10-08T02:50:00.162Z,5.80
2022-10-08T02:51:00.085Z,5.80
2022-10-08T02:52:00.080Z,5.50
2022-10-08T02:53:00.090Z,5.80
2022-10-08T02:54:00.024Z,5.00
2022-10-08T02:55:00.011Z,5.90
2022-10-08T02:56:00.027Z,5.00
2022-10-08T02:57:00.015Z,5.20
2022-10-08T02:57:59.984Z,4.90
2022-10-08T02:58:59.967Z,4.80
2022-10-08T02:59:59.972Z,4.70
2022-10-08T03:01:00.043Z,5.40
2022-10-08T03:02:00.007Z,5.50
2022-10-08T03:02:59.929Z,5.80
2022-10-08T03:03:59.928Z,5.30
2022-10-08T03:04:59.900Z,5.30
2022-10-08T03:05:59.906Z,5.20
2022-10-08T03:06:59.875Z,5.40
2022-10-08T03:07:59.870Z,5.30
2022-10-08T03:08:59.866Z,5.00
2022-10-08T03:09:59.854Z,5.40
2022-10-08T03:10:59.853Z,5.40
2022-10-08T03:11:59.837Z,5.30
2022-10-08T03:12:59.823Z,5.50
2022-10-08T03:13:59.825Z,4.60
2022-10-08T03:14:59.809Z,5.70
2022-10-08T03:15:59.805Z,5.50
2022-10-08T03:16:59.813Z,5.20
2022-10-08T03:17:59.761Z,4.90
2022-10-08T03:18:59.770Z,5.30
2022-10-08T03:19:59.736Z,5.60
2022-10-08T03:20:59.746Z,5.80
2022-10-08T03:21:59.705Z,5.40
2022-10-08T03:22:59.695Z,5.40
2022-10-08T03:23:59.686Z,5.50
2022-10-08T03:24:59.675Z,5.70
2022-10-08T03:25:59.692Z,5.00
2022-10-08T03:26:59.662Z,5.70
2022-10-08T03:27:59.668Z,5.70
2022-10-08T03:28:59.626Z,5.70
2022-10-08T03:29:59.634Z,5.50
2022-10-08T03:30:59.710Z,5.30
2022-10-08T03:31:59.598Z,5.20
2022-10-08T03:32:59.569Z,5.50
2022-10-08T03:33:59.579Z,5.50
2022-10-08T03:34:59.560Z,5.10
2022-10-08T03:35:59.577Z,5.80
2022-10-08T03:36:59.545Z,5.50
2022-10-08T03:37:59.541Z,6.00
2022-10-08T03:38:59.522Z,5.40
2022-10-08T03:39:59.502Z,6.20
2022-10-08T03:40:59.511Z,5.70
2022-10-08T03:41:59.479Z,5.80
2022-10-08T03:42:59.472Z,5.80
2022-10-08T03:43:59.456Z,5.30
2022-10-08T03:44:59.455Z,5.90
2022-10-08T03:45:59.500Z,5.50
2022-10-08T03:46:59.423Z,5.80
2022-10-08T03:47:59.412Z,5.90
2022-10-08T03:48:59.404Z,6.10
2022-10-08T03:49:59.395Z,5.60
2022-10-08T03:50:59.408Z,5.10
2022-10-08T03:51:59.365Z,5.70
2022-10-08T03:52:59.363Z,6.20
2022-10-08T03:53:59.349Z,5.60
2022-10-08T03:54:59.325Z,5.70
2022-10-08T03:55:59.343Z,6.10
2022-10-08T03:56:59.312Z,6.00
2022-10-08T03:57:59.302Z,6.20
2022-10-08T03:58:59.296Z,6.00
2022-10-08T03:59:59.281Z,6.30
2022-10-08T04:00:59.269Z,6.80
2022-10-08T04:01:59.279Z,6.30
2022-10-08T04:02:59.286Z,7.40
2022-10-08T04:03:59.229Z,6.00
2022-10-08T04:04:59.227Z,7.70
2022-10-08T04:05:59.210Z,7.50
2022-10-08T04:06:59.222Z,7.60
2022-10-08T04:07:59.181Z,7.40
2022-10-08T04:08:59.201Z,7.50
2022-10-08T04:09:59.178Z,7.40
2022-10-08T04:10:59.152Z,7.00
2022-10-08T04:11:59.143Z,8.30
2022-10-08T04:12:59.175Z,8.40
2022-10-08T04:13:59.146Z,7.70
2022-10-08T04:14:59.107Z,7.80
2022-10-08T04:15:59.119Z,8.50
2022-10-08T04:16:59.091Z,8.70
2022-10-08T04:17:59.108Z,8.00
2022-10-08T04:18:59.085Z,8.50
2022-10-08T04:19:59.061Z,8.30
2022-10-08T04:20:59.038Z,8.40
2022-10-08T04:21:59.044Z,8.40
2022-10-08T04:22:59.028Z,7.20
2022-10-08T04:23:59.041Z,9.10
2022-10-08T04:24:59.011Z,7.80
2022-10-08T04:25:58.980Z,8.30
2022-10-08T04:26:58.969Z,8.80
2022-10-08T04:27:58.961Z,8.80
2022-10-08T04:28:58.985Z,7.90
2022-10-08T04:29:58.938Z,9.00
2022-10-08T04:30:58.968Z,8.30
2022-10-08T04:31:58.942Z,9.10
2022-10-08T04:32:58.932Z,8.70
2022-10-08T04:33:58.887Z,9.10
2022-10-08T04:34:58.933Z,9.40
2022-10-08T04:36:00.297Z,8.80
2022-10-08T04:36:58.863Z,9.70
2022-10-08T04:37:58.844Z,9.80
2022-10-08T04:38:58.837Z,8.80
2022-10-08T04:39:58.827Z,9.50
2022-10-08T04:40:58.863Z,9.00
2022-10-08T04:41:58.813Z,8.20
2022-10-08T04:42:58.790Z,8.90
2022-10-08T04:43:58.794Z,8.30
2022-10-08T04:44:58.807Z,8.00
2022-10-08T04:45:58.830Z,8.20
2022-10-08T04:46:58.752Z,8.20
2022-10-08T04:47:58.744Z,9.00
2022-10-08T04:48:58.731Z,9.70
2022-10-08T04:49:58.728Z,10.20
2022-10-08T04:50:58.723Z,10.00
2022-10-08T04:51:59.245Z,10.80
2022-10-08T04:52:58.673Z,9.50
2022-10-08T04:53:58.704Z,9.20
2022-10-08T04:54:58.663Z,9.60
2022-10-08T04:55:58.644Z,11.60
2022-10-08T04:56:58.640Z,11.90
2022-10-08T04:57:58.673Z,11.50
2022-10-08T04:58:58.619Z,12.60
2022-10-08T05:00:16.936Z,13.80
2022-10-08T05:00:58.608Z,14.10
2022-10-08T05:01:58.643Z,13.40
2022-10-08T05:02:58.626Z,14.00
2022-10-08T05:03:58.597Z,15.60
2022-10-08T05:04:58.550Z,14.50
2022-10-08T05:05:58.530Z,16.60
2022-10-08T05:06:58.525Z,17.70
2022-10-08T05:07:58.537Z,18.00
2022-10-08T05:08:58.495Z,14.00
2022-10-08T05:09:58.514Z,16.70
2022-10-08T05:10:58.473Z,16.90
2022-10-08T05:11:58.500Z,17.20
2022-10-08T05:12:58.460Z,16.60
2022-10-08T05:13:58.443Z,16.10
2022-10-08T05:14:58.422Z,15.50
2022-10-08T05:15:58.514Z,17.40
2022-10-08T05:16:58.414Z,15.10
2022-10-08T05:17:58.400Z,16.50
2022-10-08T05:18:58.385Z,17.20
2022-10-08T05:19:58.391Z,17.70
2022-10-08T05:20:58.362Z,19.10
2022-10-08T05:21:58.371Z,18.10
2022-10-08T05:22:58.337Z,17.80
2022-10-08T05:23:58.365Z,19.20
2022-10-08T05:24:58.312Z,19.80
2022-10-08T05:25:58.314Z,19.90
2022-10-08T05:26:59.292Z,21.00
2022-10-08T05:27:58.300Z,19.90
2022-10-08T05:28:58.271Z,20.10
2022-10-08T05:29:58.300Z,20.70
2022-10-08T05:30:58.274Z,19.80
2022-10-08T05:31:58.265Z,20.90
2022-10-08T05:32:58.237Z,20.10
2022-10-08T05:33:58.246Z,20.30
2022-10-08T05:34:58.225Z,19.70
2022-10-08T05:35:58.224Z,20.40
2022-10-08T05:36:58.194Z,20.90
2022-10-08T05:37:58.171Z,20.90
2022-10-08T05:38:58.164Z,20.00
2022-10-08T05:39:58.186Z,20.60
2022-10-08T05:40:58.141Z,21.20
2022-10-08T05:41:58.118Z,20.10
2022-10-08T05:42:58.117Z,22.30
2022-10-08T05:43:58.124Z,21.50
2022-10-08T05:44:58.090Z,20.00
2022-10-08T05:45:58.095Z,21.20
2022-10-08T05:46:58.147Z,19.10
2022-10-08T05:47:58.063Z,20.80
2022-10-08T05:48:58.065Z,22.60
2022-10-08T05:49:58.039Z,22.70
2022-10-08T05:50:58.027Z,22.80
2022-10-08T05:51:58.065Z,22.30
2022-10-08T05:52:58.030Z,23.10
2022-10-08T05:53:57.995Z,24.20
2022-10-08T05:54:57.978Z,21.80
2022-10-08T05:55:57.958Z,20.40
2022-10-08T05:56:57.973Z,23.20
2022-10-08T05:57:58.180Z,23.50
2022-10-08T05:58:57.931Z,21.70
2022-10-08T05:59:57.929Z,23.70
2022-10-08T06:00:57.916Z,24.00
2022-10-08T06:01:57.911Z,22.90
2022-10-08T06:02:57.930Z,23.00
2022-10-08T06:03:57.904Z,24.10
2022-10-08T06:04:57.915Z,23.50
2022-10-08T06:05:57.861Z,23.20
2022-10-08T06:06:57.838Z,22.20
2022-10-08T06:07:57.837Z,22.10
2022-10-08T06:08:57.841Z,22.80
2022-10-08T06:09:57.814Z,22.50
2022-10-08T06:10:57.813Z,22.10
2022-10-08T06:11:57.789Z,20.70
2022-10-08T06:12:57.778Z,22.20
2022-10-08T06:13:57.796Z,23.00
2022-10-08T06:14:57.796Z,22.20
2022-10-08T06:15:57.799Z,20.40
2022-10-08T06:16:57.726Z,22.00
2022-10-08T06:17:57.739Z,22.10
2022-10-08T06:18:57.707Z,21.60
2022-10-08T06:19:57.720Z,22.10
2022-10-08T06:20:57.710Z,22.10
2022-10-08T06:21:57.688Z,21.10
2022-10-08T06:22:57.661Z,22.30
2022-10-08T06:23:57.652Z,22.00
2022-10-08T06:24:57.655Z,22.20
2022-10-08T06:25:57.637Z,21.40
2022-10-08T06:26:57.628Z,22.00
2022-10-08T06:27:57.624Z,20.10
2022-10-08T06:28:57.617Z,20.40
2022-10-08T06:29:57.591Z,20.90
2022-10-08T06:30:57.596Z,22.20
2022-10-08T06:31:57.601Z,21.50
2022-10-08T06:32:57.561Z,20.80
2022-10-08T06:33:57.547Z,20.60
2022-10-08T06:34:57.527Z,21.00
2022-10-08T06:35:57.537Z,21.40
2022-10-08T06:36:57.530Z,21.80
2022-10-08T06:37:57.490Z,20.30
2022-10-08T06:38:57.488Z,19.70
2022-10-08T06:39:57.473Z,18.40
2022-10-08T06:40:57.460Z,20.00
2022-10-08T06:41:57.486Z,21.90
2022-10-08T06:42:57.439Z,21.70
2022-10-08T06:43:57.444Z,21.20
2022-10-08T06:45:01.969Z,21.90
2022-10-08T06:45:57.414Z,21.10
2022-10-08T06:46:57.482Z,21.00
2022-10-08T06:47:57.395Z,20.00
2022-10-08T06:48:57.363Z,20.50
2022-10-08T06:49:57.369Z,20.90
2022-10-08T06:50:57.345Z,20.00
2022-10-08T06:51:57.332Z,20.70
2022-10-08T06:52:57.334Z,20.30
2022-10-08T06:54:00.335Z,19.80
2022-10-08T06:54:57.310Z,18.90
2022-10-08T06:55:57.297Z,19.90
2022-10-08T06:56:57.289Z,19.70
2022-10-08T06:57:57.264Z,20.60
2022-10-08T06:58:57.283Z,20.80
2022-10-08T06:59:57.310Z,20.10
2022-10-08T07:00:57.271Z,18.90
2022-10-08T07:01:57.267Z,18.80
2022-10-08T07:02:57.214Z,20.00
2022-10-08T07:03:57.228Z,19.40
2022-10-08T07:04:57.199Z,18.80
2022-10-08T07:05:57.171Z,19.10
2022-10-08T07:06:57.171Z,18.80
2022-10-08T07:07:57.151Z,18.50
2022-10-08T07:08:57.184Z,18.10
2022-10-08T07:09:57.147Z,17.30
2022-10-08T07:10:57.120Z,18.70
2022-10-08T07:11:57.108Z,17.90
2022-10-08T07:12:57.098Z,18.10
2022-10-08T07:13:57.092Z,16.90
2022-10-08T07:14:57.105Z,17.00
2022-10-08T07:15:57.119Z,17.40
2022-10-08T07:16:57.068Z,16.90
2022-10-08T07:17:57.049Z,16.20
2022-10-08T07:18:57.032Z,17.10
2022-10-08T07:19:57.019Z,16.00
2022-10-08T07:20:57.040Z,16.50
2022-10-08T07:22:01.181Z,16.10
2022-10-08T07:22:56.999Z,16.10
2022-10-08T07:23:56.963Z,16.00
2022-10-08T07:24:56.986Z,15.70
2022-10-08T07:25:56.967Z,16.30
2022-10-08T07:26:56.953Z,15.70
2022-10-08T07:27:56.928Z,16.50
2022-10-08T07:28:56.916Z,15.80
2022-10-08T07:29:56.908Z,14.90
2022-10-08T07:30:56.920Z,16.10
2022-10-08T07:31:56.962Z,14.90
2022-10-08T07:32:56.874Z,14.00
2022-10-08T07:33:56.864Z,15.00
2022-10-08T07:35:00.005Z,14.50
2022-10-08T07:35:56.873Z,13.70
2022-10-08T07:36:56.837Z,13.90
2022-10-08T07:37:56.818Z,14.90
2022-10-08T07:38:56.806Z,14.50
2022-10-08T07:39:56.805Z,14.50
2022-10-08T07:40:56.782Z,14.80
2022-10-08T07:41:56.806Z,13.80
2022-10-08T07:42:56.755Z,14.40
2022-10-08T07:43:56.751Z,13.40
2022-10-08T07:44:56.746Z,13.60
2022-10-08T07:45:56.770Z,12.70
2022-10-08T07:46:56.710Z,13.70
2022-10-08T07:47:56.726Z,13.00
2022-10-08T07:48:56.709Z,13.00
2022-10-08T07:49:57.162Z,12.30
2022-10-08T07:50:56.677Z,12.50
2022-10-08T07:51:56.663Z,13.40
2022-10-08T07:52:56.645Z,12.40
2022-10-08T07:54:00.257Z,12.30
2022-10-08T07:54:56.627Z,12.50
2022-10-08T07:55:56.609Z,13.00
2022-10-08T07:56:56.606Z,12.60
2022-10-08T07:57:56.580Z,12.00
2022-10-08T07:58:56.569Z,12.50
2022-10-08T07:59:56.951Z,12.50
2022-10-08T08:00:56.599Z,12.60
2022-10-08T08:01:56.557Z,12.60
2022-10-08T08:02:56.528Z,11.90
2022-10-08T08:03:56.519Z,11.70
2022-10-08T08:04:56.515Z,11.30
2022-10-08T08:05:56.520Z,11.30
2022-10-08T08:06:56.493Z,10.90
2022-10-08T08:07:56.493Z,10.90
2022-10-08T08:08:56.481Z,10.20
2022-10-08T08:09:56.453Z,10.00
2022-10-08T08:10:56.459Z,9.60
2022-10-08T08:11:56.439Z,9.70
2022-10-08T08:12:56.413Z,9.20
2022-10-08T08:13:56.416Z,9.10
2022-10-08T08:14:56.392Z,9.70
2022-10-08T08:15:56.378Z,8.80
2022-10-08T08:16:56.437Z,9.30
2022-10-08T08:17:56.365Z,9.40
2022-10-08T08:18:56.353Z,9.10
2022-10-08T08:19:56.342Z,9.00
2022-10-08T08:20:56.335Z,8.80
2022-10-08T08:21:56.317Z,9.10
2022-10-08T08:22:56.356Z,8.30
2022-10-08T08:23:56.293Z,9.00
2022-10-08T08:24:56.279Z,8.40
2022-10-08T08:25:56.273Z,8.40
2022-10-08T08:26:57.821Z,8.30
2022-10-08T08:27:56.242Z,8.00
2022-10-08T08:28:56.246Z,8.30
2022-10-08T08:29:56.239Z,8.40
2022-10-08T08:30:56.197Z,7.70
2022-10-08T08:31:56.259Z,7.80
2022-10-08T08:32:56.193Z,7.60
2022-10-08T08:33:56.186Z,7.60
2022-10-08T08:34:56.203Z,7.80
2022-10-08T08:35:56.155Z,7.40
2022-10-08T08:36:56.148Z,7.70
2022-10-08T08:37:56.125Z,6.90
2022-10-08T08:38:56.114Z,7.60
2022-10-08T08:39:56.090Z,7.80
2022-10-08T08:40:56.113Z,7.00
2022-10-08T08:41:56.107Z,7.00
2022-10-08T08:42:56.079Z,7.50
2022-10-08T08:43:56.053Z,7.20
2022-10-08T08:44:56.052Z,6.70
2022-10-08T08:45:56.085Z,6.40
2022-10-08T08:46:56.022Z,6.60
2022-10-08T08:47:56.013Z,6.80
2022-10-08T08:48:56.022Z,6.70
2022-10-08T08:49:55.981Z,6.70
2022-10-08T08:50:55.983Z,7.00
2022-10-08T08:51:55.985Z,7.10
2022-10-08T08:52:55.960Z,6.80
2022-10-08T08:53:55.939Z,7.20
2022-10-08T08:54:55.937Z,7.30
2022-10-08T08:55:55.917Z,6.90
2022-10-08T08:56:55.927Z,6.40
2022-10-08T08:57:55.895Z,6.40
2022-10-08T08:58:55.913Z,6.10
2022-10-08T08:59:55.926Z,6.30
2022-10-08T09:00:55.989Z,6.20
2022-10-08T09:01:55.850Z,6.50
2022-10-08T09:02:55.867Z,6.40
2022-10-08T09:03:55.818Z,6.30
2022-10-08T09:04:55.810Z,5.80
2022-10-08T09:05:55.846Z,5.30
2022-10-08T09:06:55.800Z,5.70
2022-10-08T09:07:55.786Z,5.80
2022-10-08T09:08:55.790Z,6.10
2022-10-08T09:09:55.849Z,5.90
2022-10-08T09:10:55.761Z,5.50
2022-10-08T09:11:55.733Z,5.70
2022-10-08T09:12:55.731Z,5.90
2022-10-08T09:13:55.749Z,5.70
2022-10-08T09:14:55.709Z,6.20
2022-10-08T09:15:55.682Z,6.10
2022-10-08T09:16:55.744Z,5.70
2022-10-08T09:17:55.668Z,5.60
2022-10-08T09:18:55.653Z,5.60
2022-10-08T09:19:55.692Z,5.40
2022-10-08T09:20:55.658Z,5.20
2022-10-08T09:21:55.628Z,5.30
2022-10-08T09:22:55.613Z,4.90
2022-10-08T09:23:56.319Z,5.10
2022-10-08T09:24:55.594Z,4.70
2022-10-08T09:25:55.605Z,4.70
2022-10-08T09:26:55.575Z,4.40
2022-10-08T09:27:55.558Z,4.70
2022-10-08T09:28:55.550Z,4.20
2022-10-08T09:29:55.650Z,4.30
2022-10-08T09:30:58.821Z,4.70
2022-10-08T09:31:55.523Z,4.30
2022-10-08T09:32:55.498Z,4.50
2022-10-08T09:33:55.504Z,4.80
2022-10-08T09:34:55.486Z,4.40
2022-10-08T09:35:55.494Z,4.40
2022-10-08T09:36:55.455Z,4.60
2022-10-08T09:37:55.448Z,4.60
2022-10-08T09:38:55.422Z,4.10
2022-10-08T09:39:55.452Z,4.30
2022-10-08T09:40:55.438Z,4.30
2022-10-08T09:41:55.455Z,4.50
2022-10-08T09:42:55.393Z,3.60
2022-10-08T09:43:55.385Z,4.10
2022-10-08T09:44:55.387Z,3.80
2022-10-08T09:45:55.405Z,4.00
2022-10-08T09:46:55.362Z,3.80
2022-10-08T09:47:55.344Z,4.00
2022-10-08T09:48:55.334Z,3.70
2022-10-08T09:49:55.310Z,4.00
2022-10-08T09:50:55.311Z,3.80
2022-10-08T09:51:55.315Z,3.60
2022-10-08T09:52:55.287Z,3.80
2022-10-08T09:53:55.263Z,3.90
2022-10-08T09:54:55.266Z,3.50
2022-10-08T09:55:55.253Z,3.70
2022-10-08T09:56:55.247Z,3.40
2022-10-08T09:57:55.244Z,3.70
2022-10-08T09:58:55.207Z,3.60
2022-10-08T09:59:55.237Z,3.40
2022-10-08T10:00:55.202Z,3.70
2022-10-08T10:01:55.220Z,3.40
2022-10-08T10:02:55.175Z,3.30
2022-10-08T10:03:55.232Z,3.90
2022-10-08T10:04:55.149Z,3.20
2022-10-08T10:05:55.156Z,2.80
2022-10-08T10:06:55.161Z,2.80
2022-10-08T10:07:55.129Z,3.00
2022-10-08T10:08:55.099Z,2.90
2022-10-08T10:09:55.084Z,2.90
2022-10-08T10:10:55.077Z,3.00
2022-10-08T10:11:55.098Z,2.50
2022-10-08T10:12:55.080Z,2.60
2022-10-08T10:13:55.051Z,2.20
2022-10-08T10:14:55.122Z,2.10
2022-10-08T10:15:55.022Z,2.40
2022-10-08T10:16:55.144Z,2.50
2022-10-08T10:17:55.037Z,2.20
2022-10-08T10:18:54.996Z,2.20
2022-10-08T10:19:54.980Z,2.50
2022-10-08T10:20:54.979Z,2.30
2022-10-08T10:21:54.956Z,2.90
2022-10-08T10:22:55.043Z,3.80
2022-10-08T10:23:54.934Z,3.70
2022-10-08T10:24:54.938Z,3.30
2022-10-08T10:25:57.645Z,3.20
2022-10-08T10:26:54.895Z,3.70
2022-10-08T10:27:54.911Z,3.30
2022-10-08T10:28:54.878Z,2.60
2022-10-08T10:29:54.869Z,2.70
2022-10-08T10:30:54.905Z,2.70
2022-10-08T10:31:54.849Z,2.30
2022-10-08T10:32:54.918Z,2.10
2022-10-08T10:33:54.821Z,2.30
2022-10-08T10:34:54.845Z,2.10
2022-10-08T10:35:54.813Z,1.90
2022-10-08T10:36:54.829Z,1.90
2022-10-08T10:37:54.792Z,1.80
2022-10-08T10:38:54.795Z,1.70
2022-10-08T10:39:54.743Z,1.80
2022-10-08T10:40:54.773Z,2.00
2022-10-08T10:41:54.858Z,1.80
2022-10-08T10:42:54.708Z,1.90
2022-10-08T10:43:54.739Z,1.90
2022-10-08T10:44:54.706Z,2.00
2022-10-08T10:45:54.780Z,1.90
2022-10-08T10:46:54.670Z,1.90
2022-10-08T10:47:54.695Z,1.90
2022-10-08T10:48:54.653Z,1.90
2022-10-08T10:49:54.677Z,2.20
2022-10-08T10:50:54.627Z,2.10
2022-10-08T10:51:54.612Z,2.10
2022-10-08T10:52:54.588Z,1.70
2022-10-08T10:53:54.582Z,1.90
2022-10-08T10:54:54.575Z,1.80
2022-10-08T10:55:55.004Z,2.20
2022-10-08T10:56:54.555Z,1.90
2022-10-08T10:57:54.557Z,2.10
2022-10-08T10:58:54.536Z,1.70
2022-10-08T10:59:54.511Z,2.40
2022-10-08T11:00:54.527Z,1.80
2022-10-08T11:01:54.554Z,1.90
2022-10-08T11:02:54.517Z,2.20
2022-10-08T11:03:54.469Z,2.20
2022-10-08T11:04:57.115Z,2.10
2022-10-08T11:05:55.064Z,1.80
2022-10-08T11:06:54.832Z,1.70
2022-10-08T11:07:54.432Z,1.80
2022-10-08T11:08:57.576Z,2.00
2022-10-08T11:09:54.426Z,1.70
2022-10-08T11:10:54.425Z,1.70
2022-10-08T11:11:54.419Z,1.60
2022-10-08T11:12:54.416Z,1.70
2022-10-08T11:13:54.388Z,1.40
2022-10-08T11:14:54.347Z,1.70
2022-10-08T11:15:54.504Z,1.40
2022-10-08T11:16:54.318Z,1.50
2022-10-08T11:17:54.351Z,1.40
2022-10-08T11:18:54.319Z,1.60
2022-10-08T11:19:54.303Z,1.70
2022-10-08T11:20:54.280Z,1.50
2022-10-08T11:21:54.286Z,1.70
2022-10-08T11:22:54.268Z,1.90
2022-10-08T11:23:54.301Z,1.80
2022-10-08T11:24:54.240Z,1.80
2022-10-08T11:26:16.489Z,1.70
2022-10-08T11:26:54.226Z,1.70
2022-10-08T11:27:54.225Z,1.70
2022-10-08T11:28:54.201Z,1.60
2022-10-08T11:29:54.209Z,1.90
2022-10-08T11:30:54.210Z,1.60
2022-10-08T11:31:54.172Z,1.60
2022-10-08T11:32:54.153Z,1.90
2022-10-08T11:33:54.145Z,1.80
2022-10-08T11:34:54.145Z,1.70
2022-10-08T11:35:54.133Z,2.00
2022-10-08T11:36:54.107Z,2.00
2022-10-08T11:37:54.122Z,1.80
2022-10-08T11:38:54.086Z,2.00
2022-10-08T11:39:54.065Z,1.80
2022-10-08T11:40:54.082Z,2.00
2022-10-08T11:41:54.034Z,2.00
2022-10-08T11:42:54.536Z,2.00
2022-10-08T11:43:54.012Z,1.80
2022-10-08T11:44:54.054Z,2.00
2022-10-08T11:45:54.069Z,2.00
2022-10-08T11:46:53.994Z,1.90
2022-10-08T11:47:53.966Z,1.90
2022-10-08T11:48:53.986Z,2.00
2022-10-08T11:49:53.967Z,1.70
2022-10-08T11:50:53.986Z,1.80
2022-10-08T11:51:53.930Z,1.80
2022-10-08T11:52:53.950Z,1.90
2022-10-08T11:53:53.894Z,1.80
2022-10-08T11:54:55.882Z,2.10
2022-10-08T11:55:53.920Z,1.90
2022-10-08T11:56:53.882Z,1.60
2022-10-08T11:58:07.714Z,1.80
2022-10-08T11:58:53.860Z,1.50
2022-10-08T11:59:53.840Z,1.70
2022-10-08T12:00:53.850Z,2.00
2022-10-08T12:01:53.807Z,1.70
2022-10-08T12:02:53.951Z,1.70
2022-10-08T12:03:53.821Z,1.70
2022-10-08T12:04:53.788Z,1.60
2022-10-08T12:05:53.779Z,1.60
2022-10-08T12:06:53.761Z,1.80
2022-10-08T12:07:53.792Z,1.70
2022-10-08T12:08:53.823Z,1.50
2022-10-08T12:09:53.729Z,1.80
2022-10-08T12:10:53.734Z,1.60
2022-10-08T12:11:53.706Z,1.70
2022-10-08T12:12:53.701Z,1.80
2022-10-08T12:13:53.700Z,2.00
2022-10-08T12:14:53.688Z,2.00
2022-10-08T12:15:53.786Z,1.90
2022-10-08T12:16:53.647Z,1.60
2022-10-08T12:17:53.631Z,1.70
2022-10-08T12:18:53.641Z,1.70
2022-10-08T12:19:53.615Z,1.50
2022-10-08T12:20:53.621Z,1.90
2022-10-08T12:21:53.590Z,2.00
2022-10-08T12:22:53.586Z,1.70
2022-10-08T12:23:53.569Z,2.00
2022-10-08T12:24:53.555Z,1.70
2022-10-08T12:25:53.554Z,1.70
2022-10-08T12:26:53.531Z,1.60
2022-10-08T12:27:53.520Z,1.80
2022-10-08T12:28:53.512Z,1.80
2022-10-08T12:29:53.491Z,1.60
2022-10-08T12:30:53.533Z,1.70
2022-10-08T12:31:53.536Z,1.50
2022-10-08T12:32:53.476Z,1.90
2022-10-08T12:33:53.466Z,2.10
2022-10-08T12:34:53.447Z,1.80
2022-10-08T12:35:53.468Z,1.70
2022-10-08T12:36:53.414Z,1.80
2022-10-08T12:37:53.424Z,1.80
2022-10-08T12:38:53.390Z,1.70
2022-10-08T12:39:53.419Z,2.00
2022-10-08T12:40:53.393Z,1.50
2022-10-08T12:41:53.381Z,1.60
2022-10-08T12:42:53.378Z,1.70
2022-10-08T12:43:53.338Z,1.60
2022-10-08T12:44:53.330Z,1.50
2022-10-08T12:45:53.331Z,1.60
2022-10-08T12:46:53.345Z,1.40
2022-10-08T12:47:53.306Z,1.80
2022-10-08T12:48:53.299Z,1.50
2022-10-08T12:49:53.283Z,1.70
2022-10-08T12:50:53.287Z,1.60
2022-10-08T12:51:53.269Z,1.80
2022-10-08T12:52:53.234Z,1.70
2022-10-08T12:53:53.227Z,1.80
2022-10-08T12:54:53.214Z,1.60
2022-10-08T12:55:53.223Z,1.70
2022-10-08T12:56:53.184Z,1.60
2022-10-08T12:57:53.190Z,1.40
2022-10-08T12:58:53.167Z,1.90
2022-10-08T12:59:53.149Z,1.90
2022-10-08T13:00:53.201Z,1.60
2022-10-08T13:01:53.176Z,1.70
2022-10-08T13:02:53.117Z,1.40
2022-10-08T13:03:53.123Z,1.60
2022-10-08T13:04:53.097Z,1.30
2022-10-08T13:05:53.106Z,1.70
2022-10-08T13:06:53.077Z,1.60
2022-10-08T13:07:53.085Z,2.00
2022-10-08T13:08:53.059Z,1.70
2022-10-08T13:09:53.032Z,1.70
2022-10-08T13:10:53.046Z,1.60